createdAt,value
2022-12-22T00:01:53.623Z,65.90
2022-12-22T00:05:15.214Z,68.50
2022-12-22T00:08:36.464Z,67.10
2022-12-22T00:11:58.338Z,69.70
2022-12-22T00:15:21.907Z,68.60
2022-12-22T00:18:44.663Z,68.50
2022-12-22T00:22:06.494Z,68.40
2022-12-22T00:25:32.319Z,66.90
2022-12-22T00:28:54.869Z,61.80
2022-12-22T00:32:16.595Z,58.20
2022-12-22T00:35:42.945Z,59.80
2022-12-22T00:39:04.619Z,58.20
2022-12-22T00:42:26.494Z,56.70
2022-12-22T00:45:49.123Z,57.50
2022-12-22T00:49:10.870Z,59.00
2022-12-22T00:52:33.868Z,71.40
2022-12-22T00:55:55.780Z,70.60
2022-12-22T00:59:19.608Z,74.00
2022-12-22T01:02:41.672Z,70.20
2022-12-22T01:06:03.756Z,68.80
2022-12-22T01:09:28.693Z,65.50
2022-12-22T01:12:53.827Z,66.80
2022-12-22T01:16:15.781Z,65.10
2022-12-22T01:19:37.741Z,64.50
2022-12-22T01:22:59.743Z,61.30
2022-12-22T01:26:21.562Z,64.30
2022-12-22T01:29:43.598Z,67.80
2022-12-22T01:33:05.317Z,67.90
2022-12-22T01:36:27.570Z,67.00
2022-12-22T01:39:49.299Z,66.40
2022-12-22T01:43:11.024Z,64.50
2022-12-22T01:46:45.544Z,61.70
2022-12-22T01:50:07.387Z,63.30
2022-12-22T01:53:32.707Z,64.50
2022-12-22T01:56:54.676Z,68.00
2022-12-22T02:00:16.368Z,69.70
2022-12-22T02:03:40.870Z,71.00
2022-12-22T02:07:05.040Z,70.80
2022-12-22T02:10:39.219Z,72.10
2022-12-22T02:14:10.515Z,71.00
2022-12-22T02:17:39.831Z,71.90
2022-12-22T02:21:07.106Z,75.40
2022-12-22T02:24:41.787Z,74.60
2022-12-22T02:28:08.047Z,76.60
2022-12-22T02:31:29.913Z,75.70
2022-12-22T02:34:51.607Z,72.50
2022-12-22T02:38:25.316Z,70.90
2022-12-22T02:42:02.542Z,72.10
2022-12-22T02:45:35.200Z,71.60
2022-12-22T02:49:03.414Z,63.60
2022-12-22T02:52:34.048Z,64.70
2022-12-22T02:55:55.643Z,67.60
2022-12-22T02:59:17.570Z,67.40
2022-12-22T03:02:39.859Z,67.30
2022-12-22T03:06:01.853Z,68.60
2022-12-22T03:09:23.575Z,67.60
2022-12-22T03:12:45.510Z,65.70
2022-12-22T03:16:07.262Z,63.20
2022-12-22T03:19:29.171Z,66.30
2022-12-22T03:22:51.108Z,65.10
2022-12-22T03:25:54.655Z,66.00
2022-12-22T03:28:58.218Z,66.30
2022-12-22T03:32:01.774Z,64.30
2022-12-22T03:35:07.641Z,64.40
2022-12-22T03:38:11.384Z,63.40
2022-12-22T03:41:29.312Z,61.90
2022-12-22T03:44:50.594Z,62.50
2022-12-22T03:47:54.184Z,60.50
2022-12-22T03:50:57.757Z,60.80
2022-12-22T03:54:01.640Z,59.90
2022-12-22T03:57:05.161Z,60.20
2022-12-22T04:00:10.952Z,59.50
2022-12-22T04:03:14.640Z,62.50
2022-12-22T04:06:18.832Z,61.30
2022-12-22T04:09:22.384Z,60.00
2022-12-22T04:12:44.062Z,59.40
2022-12-22T04:15:47.586Z,61.60
2022-12-22T04:18:51.314Z,58.80
2022-12-22T04:21:55.250Z,60.80
2022-12-22T04:24:58.847Z,58.30
2022-12-22T04:28:02.596Z,59.00
2022-12-22T04:31:06.557Z,59.10
2022-12-22T04:34:10.401Z,55.80
2022-12-22T04:37:17.460Z,56.30
2022-12-22T04:40:23.799Z,57.40
2022-12-22T04:43:27.643Z,55.90
2022-12-22T04:46:32.739Z,54.10
2022-12-22T04:49:37.833Z,55.00
2022-12-22T04:52:41.412Z,52.80
2022-12-22T04:55:47.415Z,53.10
2022-12-22T04:58:51.063Z,54.20
2022-12-22T05:01:54.692Z,52.40
2022-12-22T05:04:58.442Z,54.90
2022-12-22T05:08:02.236Z,55.70
2022-12-22T05:11:06.798Z,59.20
2022-12-22T05:14:10.265Z,59.40
2022-12-22T05:17:13.814Z,59.30
2022-12-22T05:20:18.048Z,58.60
2022-12-22T05:23:21.587Z,57.30
2022-12-22T05:26:25.199Z,58.70
2022-12-22T05:29:28.698Z,58.70
2022-12-22T05:32:34.709Z,57.50
2022-12-22T05:35:38.169Z,59.00
2022-12-22T05:38:41.865Z,60.00
2022-12-22T05:41:45.531Z,60.40
2022-12-22T05:44:49.097Z,59.40
2022-12-22T05:47:53.451Z,61.70
2022-12-22T05:50:57.099Z,58.90
2022-12-22T05:54:00.709Z,60.70
2022-12-22T05:57:04.399Z,60.60
2022-12-22T06:00:14.079Z,60.00
2022-12-22T06:03:17.799Z,61.30
2022-12-22T06:06:21.607Z,59.90
2022-12-22T06:09:25.175Z,60.60
2022-12-22T06:12:28.881Z,61.80
2022-12-22T06:15:32.393Z,60.60
2022-12-22T06:18:35.987Z,59.60
2022-12-22T06:21:39.576Z,58.20
2022-12-22T06:24:43.096Z,60.50
2022-12-22T06:27:47.112Z,58.00
2022-12-22T06:30:50.822Z,58.30
2022-12-22T06:33:54.420Z,60.60
2022-12-22T06:36:58.056Z,58.40
2022-12-22T06:40:01.641Z,58.70
2022-12-22T06:43:11.151Z,60.40
2022-12-22T06:46:14.785Z,58.70
2022-12-22T06:49:18.938Z,62.40
2022-12-22T06:52:22.599Z,59.10
2022-12-22T06:55:26.408Z,60.30
2022-12-22T06:58:29.905Z,58.80
2022-12-22T07:01:33.613Z,57.50
2022-12-22T07:04:37.225Z,59.80
2022-12-22T07:07:40.694Z,58.30
2022-12-22T07:11:00.235Z,58.90
2022-12-22T07:14:03.796Z,57.40
2022-12-22T07:17:08.495Z,57.70
2022-12-22T07:20:16.949Z,58.40
2022-12-22T07:23:20.541Z,59.00
2022-12-22T07:26:24.148Z,57.50
2022-12-22T07:29:27.754Z,59.00
2022-12-22T07:32:31.471Z,67.10
2022-12-22T07:35:34.966Z,68.50
2022-12-22T07:38:40.334Z,69.20
2022-12-22T07:42:07.365Z,67.70
2022-12-22T07:45:12.146Z,70.30
2022-12-22T07:48:33.856Z,73.50
2022-12-22T07:51:40.211Z,73.20
2022-12-22T07:57:46.716Z,77.00
2022-12-22T08:00:50.171Z,77.30
2022-12-22T08:03:53.820Z,78.30
2022-12-22T08:06:57.280Z,78.80
2022-12-22T08:10:00.891Z,78.60
2022-12-22T08:13:04.425Z,79.40
2022-12-22T08:16:10.993Z,78.70
2022-12-22T08:19:14.678Z,78.90
2022-12-22T08:22:18.274Z,71.60
2022-12-22T08:25:21.820Z,70.50
2022-12-22T08:28:25.458Z,72.50
2022-12-22T08:31:30.374Z,72.00
2022-12-22T08:34:34.252Z,73.30
2022-12-22T08:37:40.840Z,76.60
2022-12-22T08:40:45.267Z,72.40
2022-12-22T08:43:48.705Z,72.20
2022-12-22T08:46:53.178Z,72.40
2022-12-22T08:49:56.859Z,67.20
2022-12-22T08:53:04.161Z,67.30
2022-12-22T08:56:09.083Z,70.00
2022-12-22T08:59:13.576Z,66.60
2022-12-22T09:02:17.211Z,67.00
2022-12-22T09:05:20.966Z,68.60
2022-12-22T09:08:24.491Z,65.80
2022-12-22T09:11:28.943Z,63.40
2022-12-22T09:14:33.294Z,67.60
2022-12-22T09:17:37.488Z,66.30
2022-12-22T09:20:40.979Z,69.10
2022-12-22T09:23:44.846Z,69.50
2022-12-22T09:26:48.487Z,65.60
2022-12-22T09:29:51.996Z,66.10
2022-12-22T09:32:56.151Z,65.30
2022-12-22T09:35:59.964Z,65.40
2022-12-22T09:39:08.510Z,65.20
2022-12-22T09:42:18.192Z,66.40
2022-12-22T09:45:21.691Z,61.30
2022-12-22T09:48:30.187Z,60.40
2022-12-22T09:51:39.548Z,64.00
2022-12-22T09:54:43.146Z,62.30
2022-12-22T09:57:46.747Z,65.10
2022-12-22T10:00:56.796Z,63.40
2022-12-22T10:04:06.649Z,59.00
2022-12-22T10:07:20.707Z,54.40
2022-12-22T10:10:27.842Z,56.60
2022-12-22T10:13:31.485Z,56.00
2022-12-22T10:16:35.095Z,56.90
2022-12-22T10:19:38.594Z,56.80
2022-12-22T10:22:48.813Z,57.60
2022-12-22T10:29:32.427Z,60.00
2022-12-22T10:35:48.475Z,62.00
2022-12-22T10:38:59.246Z,59.50
2022-12-22T10:42:10.180Z,58.00
2022-12-22T10:45:20.935Z,60.10
2022-12-22T10:48:30.224Z,58.80
2022-12-22T10:51:33.852Z,59.20
2022-12-22T10:54:37.908Z,58.00
2022-12-22T10:57:41.467Z,57.30
2022-12-22T11:01:00.426Z,55.90
2022-12-22T11:04:21.900Z,52.10
2022-12-22T11:07:25.735Z,49.80
2022-12-22T11:10:39.142Z,50.40
2022-12-22T11:13:55.748Z,55.00
2022-12-22T11:17:06.975Z,39.30
2022-12-22T11:20:32.727Z,37.30
2022-12-22T11:23:44.413Z,16.10
2022-12-22T11:26:57.777Z,8.10
2022-12-22T11:30:14.125Z,5.30
2022-12-22T11:33:28.129Z,4.40
2022-12-22T11:36:42.946Z,5.00
2022-12-22T11:39:59.099Z,3.80
2022-12-22T11:43:23.692Z,4.10
2022-12-22T11:46:33.214Z,3.80
2022-12-22T11:51:01.543Z,3.70
2022-12-22T11:54:10.831Z,3.80
2022-12-22T11:57:27.983Z,3.40
2022-12-22T12:01:12.626Z,3.50
2022-12-22T12:04:21.256Z,3.60
2022-12-22T12:07:32.247Z,3.90
2022-12-22T12:10:42.150Z,4.10
2022-12-22T12:13:55.214Z,3.60
2022-12-22T12:17:02.882Z,4.20
2022-12-22T12:20:34.941Z,3.70
2022-12-22T12:24:10.343Z,3.90
2022-12-22T12:27:29.216Z,5.00
2022-12-22T12:30:39.519Z,3.80
2022-12-22T12:33:47.627Z,4.10
2022-12-22T12:36:58.492Z,3.80
2022-12-22T12:40:21.433Z,3.50
2022-12-22T12:43:25.912Z,4.30
2022-12-22T12:46:59.208Z,3.80
2022-12-22T12:50:33.574Z,3.50
2022-12-22T12:54:11.063Z,4.00
2022-12-22T12:57:26.534Z,3.40
2022-12-22T13:00:51.248Z,3.90
2022-12-22T13:04:04.218Z,3.40
2022-12-22T13:07:08.479Z,3.30
2022-12-22T13:10:20.183Z,3.50
2022-12-22T13:13:54.427Z,3.70
2022-12-22T13:17:39.934Z,3.50
2022-12-22T13:20:44.892Z,5.00
2022-12-22T13:24:23.359Z,3.90
2022-12-22T13:27:24.333Z,4.90
2022-12-22T13:30:30.740Z,5.60
2022-12-22T13:33:42.159Z,4.90
2022-12-22T13:36:47.145Z,4.40
2022-12-22T13:40:13.579Z,4.00
2022-12-22T13:43:20.488Z,3.70
2022-12-22T13:46:24.568Z,3.10
2022-12-22T13:49:59.166Z,3.50
2022-12-22T13:55:58.814Z,3.50
2022-12-22T13:59:03.456Z,5.10
2022-12-22T14:02:15.792Z,4.10
2022-12-22T14:05:20.168Z,5.00
2022-12-22T14:08:24.600Z,11.50
2022-12-22T14:11:30.914Z,8.60
2022-12-22T14:20:54.381Z,7.00
2022-12-22T14:23:58.010Z,6.40
2022-12-22T14:27:02.038Z,6.20
2022-12-22T14:30:16.296Z,27.60
2022-12-22T14:33:29.952Z,19.50
2022-12-22T14:36:40.829Z,20.60
2022-12-22T14:39:54.754Z,17.40
2022-12-22T14:43:01.146Z,11.10
2022-12-22T14:49:14.853Z,9.40
2022-12-22T14:52:22.805Z,25.10
2022-12-22T14:55:29.701Z,8.80
2022-12-22T14:58:39.014Z,8.60
2022-12-22T15:01:58.453Z,7.10
2022-12-22T15:05:16.162Z,7.10
2022-12-22T15:08:38.750Z,5.70
2022-12-22T15:11:45.448Z,6.10
2022-12-22T15:17:53.340Z,5.10
2022-12-22T15:20:57.765Z,5.60
2022-12-22T15:24:01.594Z,7.10
2022-12-22T15:27:05.401Z,9.50
2022-12-22T15:30:11.222Z,7.70
2022-12-22T15:33:16.986Z,6.50
2022-12-22T15:36:20.620Z,8.70
2022-12-22T15:39:24.482Z,6.10
2022-12-22T15:42:28.085Z,5.90
2022-12-22T15:45:31.671Z,6.70
2022-12-22T15:48:38.349Z,5.80
2022-12-22T15:51:43.606Z,6.60
2022-12-22T15:54:47.056Z,8.20
2022-12-22T15:57:52.448Z,8.10
2022-12-22T16:00:56.076Z,6.20
2022-12-22T16:03:59.843Z,13.50
2022-12-22T16:07:03.423Z,9.80
2022-12-22T16:10:20.743Z,7.60
2022-12-22T16:13:27.332Z,8.00
2022-12-22T16:16:32.366Z,6.50
2022-12-22T16:19:35.861Z,8.50
2022-12-22T16:22:41.032Z,8.60
2022-12-22T16:25:45.932Z,8.00
2022-12-22T16:28:50.050Z,9.00
2022-12-22T16:31:54.179Z,7.40
2022-12-22T16:35:06.767Z,6.60
2022-12-22T16:38:17.977Z,7.10
2022-12-22T16:41:24.819Z,6.60
2022-12-22T16:47:54.005Z,8.70
2022-12-22T16:50:57.542Z,9.00
2022-12-22T16:54:01.176Z,9.70
2022-12-22T16:57:04.781Z,7.00
2022-12-22T17:00:17.791Z,34.00
2022-12-22T17:03:25.166Z,7.60
2022-12-22T17:06:29.002Z,40.80
2022-12-22T17:09:42.963Z,10.30
2022-12-22T17:12:47.668Z,101.90
2022-12-22T17:15:51.490Z,69.60
2022-12-22T17:18:55.300Z,14.20
2022-12-22T17:22:00.241Z,41.40
2022-12-22T17:25:07.822Z,11.50
2022-12-22T17:28:14.088Z,7.20
2022-12-22T17:31:19.051Z,7.80
2022-12-22T17:34:22.687Z,13.30
2022-12-22T17:37:26.330Z,6.80
2022-12-22T17:40:30.305Z,10.60
2022-12-22T17:43:33.951Z,10.40
2022-12-22T17:46:37.626Z,12.90
2022-12-22T17:49:41.873Z,7.70
2022-12-22T17:52:45.882Z,20.60
2022-12-22T17:56:08.701Z,9.60
2022-12-22T17:59:13.362Z,5.70
2022-12-22T18:02:31.059Z,20.70
2022-12-22T18:05:40.335Z,6.00
2022-12-22T18:08:44.352Z,6.30
2022-12-22T18:11:48.162Z,6.60
2022-12-22T18:14:52.636Z,16.50
2022-12-22T18:17:56.329Z,6.20
2022-12-22T18:21:06.385Z,9.10
2022-12-22T18:24:16.254Z,6.50
2022-12-22T18:27:20.225Z,6.20
2022-12-22T18:30:26.808Z,6.10
2022-12-22T18:33:32.228Z,7.00
2022-12-22T18:36:36.842Z,29.40
2022-12-22T18:39:41.085Z,7.70
2022-12-22T18:42:44.577Z,7.50
2022-12-22T18:45:48.291Z,39.80
2022-12-22T18:48:51.925Z,9.10
2022-12-22T18:51:55.331Z,213.70
2022-12-22T18:54:59.098Z,52.30
2022-12-22T18:58:02.808Z,31.60
2022-12-22T19:01:07.527Z,45.60
2022-12-22T19:04:11.611Z,16.80
2022-12-22T19:07:17.997Z,9.10
2022-12-22T19:13:29.683Z,12.00
2022-12-22T19:16:33.481Z,11.50
2022-12-22T19:19:37.081Z,16.50
2022-12-22T19:22:40.605Z,24.50
2022-12-22T19:25:46.110Z,12.40
2022-12-22T19:28:51.676Z,27.00
2022-12-22T19:31:55.402Z,13.00
2022-12-22T19:34:58.977Z,28.10
2022-12-22T19:38:02.829Z,9.80
2022-12-22T19:41:23.457Z,25.20
2022-12-22T19:44:29.854Z,15.20
2022-12-22T19:50:35.962Z,8.80
2022-12-22T19:53:39.697Z,11.20
2022-12-22T19:56:45.621Z,12.70
2022-12-22T19:59:51.732Z,15.00
2022-12-22T20:02:57.254Z,13.70
2022-12-22T20:06:01.046Z,11.40
2022-12-22T20:09:05.210Z,18.20
2022-12-22T20:12:21.102Z,13.60
2022-12-22T20:15:26.308Z,15.00
2022-12-22T20:18:30.470Z,9.70
2022-12-22T20:21:34.981Z,18.60
2022-12-22T20:24:38.493Z,6.90
2022-12-22T20:27:42.317Z,11.40
2022-12-22T20:30:46.847Z,11.20
2022-12-22T20:33:51.156Z,8.50
2022-12-22T20:36:55.050Z,16.40
2022-12-22T20:39:58.539Z,8.80
2022-12-22T20:43:02.266Z,8.20
2022-12-22T20:46:13.883Z,9.30
2022-12-22T20:49:17.906Z,9.10
2022-12-22T20:52:21.568Z,15.30
2022-12-22T20:55:27.253Z,29.70
2022-12-22T20:58:35.526Z,17.60
2022-12-22T21:01:39.168Z,15.00
2022-12-22T21:04:42.848Z,8.50
2022-12-22T21:07:48.208Z,9.90
2022-12-22T21:10:53.643Z,7.40
2022-12-22T21:13:58.481Z,6.20
2022-12-22T21:17:02.172Z,9.70
2022-12-22T21:20:10.412Z,7.70
2022-12-22T21:23:15.881Z,9.30
2022-12-22T21:26:24.390Z,8.10
2022-12-22T21:29:28.112Z,7.90
2022-12-22T21:32:31.655Z,7.30
2022-12-22T21:35:37.288Z,8.30
2022-12-22T21:38:40.923Z,8.30
2022-12-22T21:41:59.889Z,10.50
2022-12-22T21:45:03.637Z,9.40
2022-12-22T21:48:11.359Z,8.30
2022-12-22T21:51:14.888Z,5.70
2022-12-22T21:54:19.778Z,5.50
2022-12-22T21:57:23.718Z,4.70
2022-12-22T22:00:29.000Z,4.70
2022-12-22T22:03:33.168Z,4.90
2022-12-22T22:06:37.109Z,4.80
2022-12-22T22:09:40.621Z,4.50
2022-12-22T22:12:44.467Z,5.50
2022-12-22T22:15:48.046Z,4.80
2022-12-22T22:18:51.645Z,5.50
2022-12-22T22:21:55.169Z,6.20
2022-12-22T22:24:58.736Z,22.00
2022-12-22T22:28:02.322Z,53.60
2022-12-22T22:31:11.772Z,36.40
2022-12-22T22:34:15.854Z,46.80
2022-12-22T22:37:19.480Z,55.30
2022-12-22T22:40:23.899Z,14.40
2022-12-22T22:43:27.532Z,8.00
2022-12-22T22:46:31.071Z,14.40
2022-12-22T22:49:35.154Z,8.50
2022-12-22T22:52:38.633Z,13.60
2022-12-22T22:55:42.173Z,12.70
2022-12-22T22:58:45.667Z,11.30
2022-12-22T23:01:49.325Z,6.30
2022-12-22T23:04:52.799Z,6.90
2022-12-22T23:07:56.240Z,6.50
2022-12-22T23:11:00.083Z,6.80
2022-12-22T23:14:03.682Z,5.60
2022-12-22T23:17:07.630Z,9.90
2022-12-22T23:20:12.580Z,11.90
2022-12-22T23:23:16.213Z,7.10
2022-12-22T23:26:19.831Z,5.50
2022-12-22T23:29:23.472Z,5.30
2022-12-22T23:32:27.244Z,7.00
2022-12-22T23:35:30.945Z,9.40
2022-12-22T23:38:34.920Z,5.50
2022-12-22T23:41:38.621Z,6.90
2022-12-22T23:44:42.166Z,4.90
2022-12-22T23:47:46.416Z,5.70
2022-12-22T23:50:50.096Z,4.40
2022-12-22T23:53:54.108Z,5.40
2022-12-22T23:56:57.606Z,5.30
